sensor_id;sensor_type;location;lat;lon;timestamp;P1;durP1;ratioP1;P2;durP2;ratioP2
41101;SDS011;26845;50.190;19.178;2022-07-12T00:02:25;2.10;;;1.80;;
41101;SDS011;26845;50.190;19.178;2022-07-12T00:04:51;1.92;;;1.77;;
41101;SDS011;26845;50.190;19.178;2022-07-12T00:07:17;2.35;;;2.00;;
41101;SDS011;26845;50.190;19.178;2022-07-12T00:09:44;3.15;;;2.17;;
41101;SDS011;26845;50.190;19.178;2022-07-12T00:12:10;4.30;;;1.92;;
41101;SDS011;26845;50.190;19.178;2022-07-12T00:14:36;4.45;;;1.72;;
41101;SDS011;26845;50.190;19.178;2022-07-12T00:17:02;2.70;;;1.72;;
41101;SDS011;26845;50.190;19.178;2022-07-12T00:19:29;2.02;;;1.82;;
41101;SDS011;26845;50.190;19.178;2022-07-12T00:21:55;4.83;;;1.95;;
41101;SDS011;26845;50.190;19.178;2022-07-12T00:24:21;6.22;;;2.12;;
41101;SDS011;26845;50.190;19.178;2022-07-12T00:26:48;6.35;;;2.08;;
41101;SDS011;26845;50.190;19.178;2022-07-12T00:29:14;2.50;;;1.65;;
41101;SDS011;26845;50.190;19.178;2022-07-12T00:31:40;2.10;;;1.95;;
41101;SDS011;26845;50.190;19.178;2022-07-12T00:34:06;3.60;;;2.30;;
41101;SDS011;26845;50.190;19.178;2022-07-12T00:36:32;4.42;;;1.98;;
41101;SDS011;26845;50.190;19.178;2022-07-12T00:38:58;4.05;;;1.90;;
41101;SDS011;26845;50.190;19.178;2022-07-12T00:41:24;3.62;;;1.75;;
41101;SDS011;26845;50.190;19.178;2022-07-12T00:43:50;2.65;;;2.22;;
41101;SDS011;26845;50.190;19.178;2022-07-12T00:46:17;6.00;;;2.00;;
41101;SDS011;26845;50.190;19.178;2022-07-12T00:48:47;4.55;;;2.75;;
41101;SDS011;26845;50.190;19.178;2022-07-12T00:51:13;6.53;;;2.92;;
41101;SDS011;26845;50.190;19.178;2022-07-12T00:53:39;5.40;;;2.70;;
41101;SDS011;26845;50.190;19.178;2022-07-12T00:56:05;6.62;;;3.02;;
41101;SDS011;26845;50.190;19.178;2022-07-12T00:58:32;2.60;;;2.40;;
41101;SDS011;26845;50.190;19.178;2022-07-12T01:00:58;4.90;;;2.77;;
41101;SDS011;26845;50.190;19.178;2022-07-12T01:03:24;4.00;;;2.58;;
41101;SDS011;26845;50.190;19.178;2022-07-12T01:05:50;4.45;;;2.98;;
41101;SDS011;26845;50.190;19.178;2022-07-12T01:08:16;3.17;;;2.75;;
41101;SDS011;26845;50.190;19.178;2022-07-12T01:10:44;3.95;;;2.40;;
41101;SDS011;26845;50.190;19.178;2022-07-12T01:13:10;3.30;;;2.20;;
41101;SDS011;26845;50.190;19.178;2022-07-12T01:15:37;6.03;;;2.83;;
41101;SDS011;26845;50.190;19.178;2022-07-12T01:18:03;3.87;;;2.75;;
41101;SDS011;26845;50.190;19.178;2022-07-12T01:20:30;3.50;;;2.75;;
41101;SDS011;26845;50.190;19.178;2022-07-12T01:22:58;2.72;;;2.12;;
41101;SDS011;26845;50.190;19.178;2022-07-12T01:25:24;4.05;;;2.55;;
41101;SDS011;26845;50.190;19.178;2022-07-12T01:27:51;3.37;;;2.17;;
41101;SDS011;26845;50.190;19.178;2022-07-12T01:30:18;5.25;;;2.60;;
41101;SDS011;26845;50.190;19.178;2022-07-12T01:32:45;4.22;;;2.60;;
41101;SDS011;26845;50.190;19.178;2022-07-12T01:35:11;5.45;;;2.70;;
41101;SDS011;26845;50.190;19.178;2022-07-12T01:37:38;3.65;;;2.15;;
41101;SDS011;26845;50.190;19.178;2022-07-12T01:40:10;3.02;;;2.12;;
41101;SDS011;26845;50.190;19.178;2022-07-12T01:42:38;3.53;;;2.03;;
41101;SDS011;26845;50.190;19.178;2022-07-12T01:45:06;4.30;;;2.52;;
41101;SDS011;26845;50.190;19.178;2022-07-12T01:47:34;7.12;;;2.83;;
41101;SDS011;26845;50.190;19.178;2022-07-12T01:50:00;3.10;;;2.80;;
41101;SDS011;26845;50.190;19.178;2022-07-12T01:52:28;3.92;;;3.22;;
41101;SDS011;26845;50.190;19.178;2022-07-12T01:54:54;5.95;;;2.67;;
41101;SDS011;26845;50.190;19.178;2022-07-12T01:57:22;2.75;;;1.92;;
41101;SDS011;26845;50.190;19.178;2022-07-12T01:59:50;4.42;;;2.20;;
41101;SDS011;26845;50.190;19.178;2022-07-12T02:02:17;3.30;;;2.22;;
41101;SDS011;26845;50.190;19.178;2022-07-12T02:04:43;6.78;;;2.67;;
41101;SDS011;26845;50.190;19.178;2022-07-12T02:07:09;4.17;;;2.17;;
41101;SDS011;26845;50.190;19.178;2022-07-12T02:09:35;6.22;;;2.35;;
41101;SDS011;26845;50.190;19.178;2022-07-12T02:12:01;4.87;;;2.30;;
41101;SDS011;26845;50.190;19.178;2022-07-12T02:14:29;8.00;;;2.12;;
41101;SDS011;26845;50.190;19.178;2022-07-12T02:16:55;2.45;;;1.75;;
41101;SDS011;26845;50.190;19.178;2022-07-12T02:19:21;4.35;;;1.70;;
41101;SDS011;26845;50.190;19.178;2022-07-12T02:21:47;4.25;;;1.85;;
41101;SDS011;26845;50.190;19.178;2022-07-12T02:24:13;4.75;;;1.82;;
41101;SDS011;26845;50.190;19.178;2022-07-12T02:26:41;4.28;;;2.50;;
41101;SDS011;26845;50.190;19.178;2022-07-12T02:29:08;4.10;;;1.90;;
41101;SDS011;26845;50.190;19.178;2022-07-12T02:31:36;5.22;;;2.12;;
41101;SDS011;26845;50.190;19.178;2022-07-12T02:34:02;3.77;;;1.70;;
41101;SDS011;26845;50.190;19.178;2022-07-12T02:36:27;3.75;;;1.98;;
41101;SDS011;26845;50.190;19.178;2022-07-12T02:38:53;3.12;;;1.87;;
41101;SDS011;26845;50.190;19.178;2022-07-12T02:41:20;3.47;;;2.08;;
41101;SDS011;26845;50.190;19.178;2022-07-12T02:43:46;3.02;;;2.12;;
41101;SDS011;26845;50.190;19.178;2022-07-12T02:46:12;2.70;;;1.82;;
41101;SDS011;26845;50.190;19.178;2022-07-12T02:48:39;3.55;;;1.67;;
41101;SDS011;26845;50.190;19.178;2022-07-12T02:51:06;3.83;;;2.15;;
41101;SDS011;26845;50.190;19.178;2022-07-12T02:53:33;4.15;;;1.87;;
41101;SDS011;26845;50.190;19.178;2022-07-12T02:56:00;2.65;;;1.57;;
41101;SDS011;26845;50.190;19.178;2022-07-12T02:58:26;2.70;;;1.57;;
41101;SDS011;26845;50.190;19.178;2022-07-12T03:00:52;3.02;;;1.55;;
41101;SDS011;26845;50.190;19.178;2022-07-12T03:03:18;5.47;;;1.75;;
41101;SDS011;26845;50.190;19.178;2022-07-12T03:05:44;2.80;;;1.80;;
41101;SDS011;26845;50.190;19.178;2022-07-12T03:08:10;4.37;;;1.72;;
41101;SDS011;26845;50.190;19.178;2022-07-12T03:10:37;4.78;;;1.47;;
41101;SDS011;26845;50.190;19.178;2022-07-12T03:13:03;2.40;;;1.47;;
41101;SDS011;26845;50.190;19.178;2022-07-12T03:15:30;3.95;;;1.87;;
41101;SDS011;26845;50.190;19.178;2022-07-12T03:17:57;3.27;;;1.85;;
41101;SDS011;26845;50.190;19.178;2022-07-12T03:20:24;4.65;;;2.22;;
41101;SDS011;26845;50.190;19.178;2022-07-12T03:22:50;6.53;;;2.30;;
41101;SDS011;26845;50.190;19.178;2022-07-12T03:25:20;6.75;;;2.00;;
41101;SDS011;26845;50.190;19.178;2022-07-12T03:27:47;4.33;;;2.05;;
41101;SDS011;26845;50.190;19.178;2022-07-12T03:30:13;2.67;;;1.55;;
41101;SDS011;26845;50.190;19.178;2022-07-12T03:32:39;2.95;;;1.98;;
41101;SDS011;26845;50.190;19.178;2022-07-12T03:35:06;2.20;;;2.00;;
41101;SDS011;26845;50.190;19.178;2022-07-12T03:40:08;2.55;;;2.08;;
41101;SDS011;26845;50.190;19.178;2022-07-12T03:42:36;3.75;;;2.17;;
41101;SDS011;26845;50.190;19.178;2022-07-12T03:45:02;3.37;;;2.17;;
41101;SDS011;26845;50.190;19.178;2022-07-12T03:47:28;3.70;;;2.12;;
41101;SDS011;26845;50.190;19.178;2022-07-12T03:49:56;5.67;;;2.70;;
41101;SDS011;26845;50.190;19.178;2022-07-12T03:52:23;6.25;;;2.27;;
41101;SDS011;26845;50.190;19.178;2022-07-12T03:54:49;3.75;;;2.45;;
41101;SDS011;26845;50.190;19.178;2022-07-12T03:57:14;6.12;;;2.80;;
41101;SDS011;26845;50.190;19.178;2022-07-12T03:59:41;5.22;;;3.72;;
41101;SDS011;26845;50.190;19.178;2022-07-12T04:02:09;3.37;;;2.92;;
41101;SDS011;26845;50.190;19.178;2022-07-12T04:04:36;4.12;;;3.25;;
41101;SDS011;26845;50.190;19.178;2022-07-12T04:07:02;4.62;;;3.02;;
41101;SDS011;26845;50.190;19.178;2022-07-12T04:09:29;3.02;;;1.90;;
41101;SDS011;26845;50.190;19.178;2022-07-12T04:11:55;3.98;;;2.27;;
41101;SDS011;26845;50.190;19.178;2022-07-12T04:14:21;4.50;;;2.22;;
41101;SDS011;26845;50.190;19.178;2022-07-12T04:16:47;5.55;;;2.30;;
41101;SDS011;26845;50.190;19.178;2022-07-12T04:19:13;5.37;;;2.50;;
41101;SDS011;26845;50.190;19.178;2022-07-12T04:21:39;3.67;;;2.33;;
41101;SDS011;26845;50.190;19.178;2022-07-12T04:24:05;4.37;;;2.10;;
41101;SDS011;26845;50.190;19.178;2022-07-12T04:26:33;2.60;;;2.40;;
41101;SDS011;26845;50.190;19.178;2022-07-12T04:28:59;4.95;;;2.35;;
41101;SDS011;26845;50.190;19.178;2022-07-12T04:31:24;3.15;;;2.55;;
41101;SDS011;26845;50.190;19.178;2022-07-12T04:33:53;4.67;;;2.60;;
41101;SDS011;26845;50.190;19.178;2022-07-12T04:36:18;7.20;;;2.90;;
41101;SDS011;26845;50.190;19.178;2022-07-12T04:38:44;4.85;;;2.83;;
41101;SDS011;26845;50.190;19.178;2022-07-12T04:41:09;7.83;;;3.08;;
41101;SDS011;26845;50.190;19.178;2022-07-12T04:43:35;3.72;;;2.40;;
41101;SDS011;26845;50.190;19.178;2022-07-12T04:46:07;5.95;;;2.52;;
41101;SDS011;26845;50.190;19.178;2022-07-12T04:48:35;3.62;;;2.47;;
41101;SDS011;26845;50.190;19.178;2022-07-12T04:51:02;5.05;;;2.67;;
41101;SDS011;26845;50.190;19.178;2022-07-12T04:53:29;4.05;;;2.47;;
41101;SDS011;26845;50.190;19.178;2022-07-12T04:55:57;3.05;;;2.37;;
41101;SDS011;26845;50.190;19.178;2022-07-12T04:58:24;5.42;;;2.98;;
41101;SDS011;26845;50.190;19.178;2022-07-12T05:00:53;4.75;;;2.77;;
41101;SDS011;26845;50.190;19.178;2022-07-12T05:05:50;4.30;;;2.52;;
41101;SDS011;26845;50.190;19.178;2022-07-12T05:08:16;2.92;;;2.50;;
41101;SDS011;26845;50.190;19.178;2022-07-12T05:10:45;4.95;;;2.37;;
41101;SDS011;26845;50.190;19.178;2022-07-12T05:13:11;6.25;;;2.77;;
41101;SDS011;26845;50.190;19.178;2022-07-12T05:15:37;5.10;;;2.55;;
41101;SDS011;26845;50.190;19.178;2022-07-12T05:18:03;8.45;;;2.55;;
41101;SDS011;26845;50.190;19.178;2022-07-12T05:20:29;3.45;;;2.52;;
41101;SDS011;26845;50.190;19.178;2022-07-12T05:22:58;3.00;;;2.45;;
41101;SDS011;26845;50.190;19.178;2022-07-12T05:25:24;6.35;;;2.30;;
41101;SDS011;26845;50.190;19.178;2022-07-12T05:27:52;4.35;;;2.20;;
41101;SDS011;26845;50.190;19.178;2022-07-12T05:30:18;1.72;;;1.57;;
41101;SDS011;26845;50.190;19.178;2022-07-12T05:32:45;2.72;;;1.87;;
41101;SDS011;26845;50.190;19.178;2022-07-12T05:35:11;3.35;;;1.90;;
41101;SDS011;26845;50.190;19.178;2022-07-12T05:37:36;3.40;;;1.98;;
41101;SDS011;26845;50.190;19.178;2022-07-12T05:40:03;6.20;;;2.75;;
41101;SDS011;26845;50.190;19.178;2022-07-12T05:42:30;4.33;;;2.17;;
41101;SDS011;26845;50.190;19.178;2022-07-12T05:44:56;4.42;;;1.72;;
41101;SDS011;26845;50.190;19.178;2022-07-12T05:47:22;6.03;;;2.20;;
41101;SDS011;26845;50.190;19.178;2022-07-12T05:49:48;5.53;;;2.30;;
41101;SDS011;26845;50.190;19.178;2022-07-12T05:52:14;3.25;;;1.70;;
41101;SDS011;26845;50.190;19.178;2022-07-12T05:54:56;4.28;;;2.17;;
41101;SDS011;26845;50.190;19.178;2022-07-12T05:57:24;3.90;;;1.72;;
41101;SDS011;26845;50.190;19.178;2022-07-12T05:59:50;4.00;;;1.87;;
41101;SDS011;26845;50.190;19.178;2022-07-12T06:02:16;4.45;;;1.85;;
41101;SDS011;26845;50.190;19.178;2022-07-12T06:04:42;4.72;;;2.00;;
41101;SDS011;26845;50.190;19.178;2022-07-12T06:07:08;3.33;;;2.20;;
41101;SDS011;26845;50.190;19.178;2022-07-12T06:09:34;2.72;;;2.17;;
41101;SDS011;26845;50.190;19.178;2022-07-12T06:12:00;6.15;;;2.05;;
41101;SDS011;26845;50.190;19.178;2022-07-12T06:14:26;8.38;;;2.75;;
41101;SDS011;26845;50.190;19.178;2022-07-12T06:16:52;3.85;;;2.92;;
41101;SDS011;26845;50.190;19.178;2022-07-12T06:19:17;5.25;;;2.92;;
41101;SDS011;26845;50.190;19.178;2022-07-12T06:21:43;7.37;;;3.00;;
41101;SDS011;26845;50.190;19.178;2022-07-12T06:24:09;5.87;;;2.75;;
41101;SDS011;26845;50.190;19.178;2022-07-12T06:26:35;5.47;;;2.87;;
41101;SDS011;26845;50.190;19.178;2022-07-12T06:29:01;7.92;;;2.72;;
41101;SDS011;26845;50.190;19.178;2022-07-12T06:31:27;5.28;;;2.55;;
41101;SDS011;26845;50.190;19.178;2022-07-12T06:33:53;4.78;;;2.25;;
41101;SDS011;26845;50.190;19.178;2022-07-12T06:36:19;4.30;;;2.20;;
41101;SDS011;26845;50.190;19.178;2022-07-12T06:38:45;5.87;;;2.72;;
41101;SDS011;26845;50.190;19.178;2022-07-12T06:41:11;2.40;;;2.20;;
41101;SDS011;26845;50.190;19.178;2022-07-12T06:43:39;3.15;;;2.50;;
41101;SDS011;26845;50.190;19.178;2022-07-12T06:46:06;4.97;;;2.35;;
41101;SDS011;26845;50.190;19.178;2022-07-12T06:48:33;6.08;;;2.33;;
41101;SDS011;26845;50.190;19.178;2022-07-12T06:50:59;3.90;;;2.08;;
41101;SDS011;26845;50.190;19.178;2022-07-12T06:53:30;2.70;;;1.67;;
41101;SDS011;26845;50.190;19.178;2022-07-12T06:55:58;2.52;;;1.90;;
41101;SDS011;26845;50.190;19.178;2022-07-12T06:58:25;3.90;;;2.42;;
41101;SDS011;26845;50.190;19.178;2022-07-12T07:00:51;4.05;;;1.75;;
41101;SDS011;26845;50.190;19.178;2022-07-12T07:03:18;2.30;;;2.00;;
41101;SDS011;26845;50.190;19.178;2022-07-12T07:05:46;3.98;;;1.90;;
41101;SDS011;26845;50.190;19.178;2022-07-12T07:08:12;2.22;;;1.80;;
41101;SDS011;26845;50.190;19.178;2022-07-12T07:10:37;3.40;;;1.95;;
41101;SDS011;26845;50.190;19.178;2022-07-12T07:13:03;3.95;;;1.60;;
41101;SDS011;26845;50.190;19.178;2022-07-12T07:15:29;1.65;;;1.40;;
41101;SDS011;26845;50.190;19.178;2022-07-12T07:17:55;1.90;;;1.20;;
41101;SDS011;26845;50.190;19.178;2022-07-12T07:20:22;2.05;;;1.30;;
41101;SDS011;26845;50.190;19.178;2022-07-12T07:22:48;3.12;;;1.42;;
41101;SDS011;26845;50.190;19.178;2022-07-12T07:25:14;2.70;;;1.10;;
41101;SDS011;26845;50.190;19.178;2022-07-12T07:27:41;2.75;;;1.00;;
41101;SDS011;26845;50.190;19.178;2022-07-12T07:30:09;1.70;;;1.02;;
41101;SDS011;26845;50.190;19.178;2022-07-12T07:32:54;2.55;;;1.15;;
41101;SDS011;26845;50.190;19.178;2022-07-12T07:35:20;2.37;;;0.98;;
41101;SDS011;26845;50.190;19.178;2022-07-12T07:37:47;3.45;;;1.25;;
41101;SDS011;26845;50.190;19.178;2022-07-12T07:40:16;2.25;;;0.85;;
41101;SDS011;26845;50.190;19.178;2022-07-12T07:42:42;1.35;;;0.85;;
41101;SDS011;26845;50.190;19.178;2022-07-12T07:45:08;1.40;;;0.82;;
41101;SDS011;26845;50.190;19.178;2022-07-12T07:47:42;3.10;;;1.02;;
41101;SDS011;26845;50.190;19.178;2022-07-12T07:50:11;4.33;;;1.00;;
41101;SDS011;26845;50.190;19.178;2022-07-12T07:52:37;1.20;;;1.10;;
41101;SDS011;26845;50.190;19.178;2022-07-12T07:55:03;3.85;;;1.32;;
41101;SDS011;26845;50.190;19.178;2022-07-12T07:57:30;2.80;;;0.82;;
41101;SDS011;26845;50.190;19.178;2022-07-12T07:59:59;1.52;;;0.90;;
41101;SDS011;26845;50.190;19.178;2022-07-12T08:02:26;2.22;;;0.93;;
41101;SDS011;26845;50.190;19.178;2022-07-12T08:04:52;4.00;;;1.00;;
41101;SDS011;26845;50.190;19.178;2022-07-12T08:07:18;1.22;;;1.12;;
41101;SDS011;26845;50.190;19.178;2022-07-12T08:09:44;3.20;;;0.88;;
41101;SDS011;26845;50.190;19.178;2022-07-12T08:12:10;2.50;;;0.88;;
41101;SDS011;26845;50.190;19.178;2022-07-12T08:14:36;2.90;;;0.80;;
41101;SDS011;26845;50.190;19.178;2022-07-12T08:17:02;4.10;;;1.10;;
41101;SDS011;26845;50.190;19.178;2022-07-12T08:19:29;1.42;;;0.72;;
41101;SDS011;26845;50.190;19.178;2022-07-12T08:21:55;1.47;;;0.65;;
41101;SDS011;26845;50.190;19.178;2022-07-12T08:24:21;1.20;;;0.60;;
41101;SDS011;26845;50.190;19.178;2022-07-12T08:26:47;4.25;;;0.60;;
41101;SDS011;26845;50.190;19.178;2022-07-12T08:29:13;0.98;;;0.50;;
41101;SDS011;26845;50.190;19.178;2022-07-12T08:31:39;1.25;;;0.60;;
41101;SDS011;26845;50.190;19.178;2022-07-12T08:34:05;3.02;;;0.70;;
41101;SDS011;26845;50.190;19.178;2022-07-12T08:36:31;1.35;;;0.80;;
41101;SDS011;26845;50.190;19.178;2022-07-12T08:38:58;0.70;;;0.40;;
41101;SDS011;26845;50.190;19.178;2022-07-12T08:41:24;1.42;;;0.60;;
41101;SDS011;26845;50.190;19.178;2022-07-12T08:43:50;3.45;;;0.70;;
41101;SDS011;26845;50.190;19.178;2022-07-12T08:46:16;2.90;;;0.80;;
41101;SDS011;26845;50.190;19.178;2022-07-12T08:48:42;0.72;;;0.68;;
41101;SDS011;26845;50.190;19.178;2022-07-12T08:51:11;1.00;;;0.57;;
41101;SDS011;26845;50.190;19.178;2022-07-12T08:53:47;2.60;;;0.88;;
41101;SDS011;26845;50.190;19.178;2022-07-12T08:56:29;0.93;;;0.80;;
41101;SDS011;26845;50.190;19.178;2022-07-12T08:59:12;3.75;;;0.90;;
41101;SDS011;26845;50.190;19.178;2022-07-12T09:01:51;2.02;;;1.02;;
41101;SDS011;26845;50.190;19.178;2022-07-12T09:04:20;2.25;;;0.80;;
41101;SDS011;26845;50.190;19.178;2022-07-12T09:06:49;2.33;;;1.12;;
41101;SDS011;26845;50.190;19.178;2022-07-12T09:09:27;2.17;;;0.60;;
41101;SDS011;26845;50.190;19.178;2022-07-12T09:12:00;2.30;;;0.98;;
41101;SDS011;26845;50.190;19.178;2022-07-12T09:14:30;1.77;;;0.85;;
41101;SDS011;26845;50.190;19.178;2022-07-12T09:17:02;0.85;;;0.62;;
41101;SDS011;26845;50.190;19.178;2022-07-12T09:19:32;2.77;;;1.82;;
41101;SDS011;26845;50.190;19.178;2022-07-12T09:22:01;5.80;;;1.77;;
41101;SDS011;26845;50.190;19.178;2022-07-12T09:24:30;0.85;;;0.80;;
41101;SDS011;26845;50.190;19.178;2022-07-12T09:26:57;3.22;;;0.90;;
41101;SDS011;26845;50.190;19.178;2022-07-12T09:29:31;3.15;;;1.00;;
41101;SDS011;26845;50.190;19.178;2022-07-12T09:32:06;3.87;;;1.90;;
41101;SDS011;26845;50.190;19.178;2022-07-12T09:34:56;4.22;;;1.70;;
41101;SDS011;26845;50.190;19.178;2022-07-12T09:37:42;1.35;;;0.98;;
41101;SDS011;26845;50.190;19.178;2022-07-12T09:40:08;2.50;;;0.90;;
41101;SDS011;26845;50.190;19.178;2022-07-12T09:42:37;4.03;;;1.40;;
41101;SDS011;26845;50.190;19.178;2022-07-12T09:45:09;3.35;;;1.25;;
41101;SDS011;26845;50.190;19.178;2022-07-12T09:47:37;4.22;;;1.20;;
41101;SDS011;26845;50.190;19.178;2022-07-12T09:50:08;2.22;;;1.35;;
41101;SDS011;26845;50.190;19.178;2022-07-12T09:52:36;5.90;;;1.40;;
41101;SDS011;26845;50.190;19.178;2022-07-12T09:55:05;4.45;;;0.95;;
41101;SDS011;26845;50.190;19.178;2022-07-12T09:57:33;4.37;;;1.45;;
41101;SDS011;26845;50.190;19.178;2022-07-12T10:00:05;3.60;;;1.30;;
41101;SDS011;26845;50.190;19.178;2022-07-12T10:02:33;5.17;;;1.60;;
41101;SDS011;26845;50.190;19.178;2022-07-12T10:05:00;3.22;;;1.37;;
41101;SDS011;26845;50.190;19.178;2022-07-12T10:07:30;5.70;;;1.55;;
41101;SDS011;26845;50.190;19.178;2022-07-12T10:09:57;1.62;;;1.00;;
41101;SDS011;26845;50.190;19.178;2022-07-12T10:12:27;7.67;;;1.35;;
41101;SDS011;26845;50.190;19.178;2022-07-12T10:15:00;4.87;;;2.33;;
41101;SDS011;26845;50.190;19.178;2022-07-12T10:17:32;7.00;;;1.77;;
41101;SDS011;26845;50.190;19.178;2022-07-12T10:20:18;2.25;;;0.60;;
41101;SDS011;26845;50.190;19.178;2022-07-12T10:22:51;0.85;;;0.60;;
41101;SDS011;26845;50.190;19.178;2022-07-12T10:25:31;1.55;;;1.07;;
41101;SDS011;26845;50.190;19.178;2022-07-12T10:28:02;3.85;;;0.70;;
41101;SDS011;26845;50.190;19.178;2022-07-12T10:30:29;1.92;;;0.70;;
41101;SDS011;26845;50.190;19.178;2022-07-12T10:33:04;1.35;;;0.70;;
41101;SDS011;26845;50.190;19.178;2022-07-12T10:35:30;1.12;;;0.68;;
41101;SDS011;26845;50.190;19.178;2022-07-12T10:38:13;0.72;;;0.40;;
41101;SDS011;26845;50.190;19.178;2022-07-12T10:40:47;3.58;;;0.53;;
41101;SDS011;26845;50.190;19.178;2022-07-12T10:43:27;1.12;;;0.50;;
41101;SDS011;26845;50.190;19.178;2022-07-12T10:46:20;1.50;;;0.60;;
41101;SDS011;26845;50.190;19.178;2022-07-12T10:48:50;2.47;;;0.90;;
41101;SDS011;26845;50.190;19.178;2022-07-12T10:53:46;1.82;;;0.70;;
41101;SDS011;26845;50.190;19.178;2022-07-12T10:56:21;2.80;;;0.80;;
41101;SDS011;26845;50.190;19.178;2022-07-12T10:58:52;1.30;;;0.65;;
41101;SDS011;26845;50.190;19.178;2022-07-12T11:01:24;3.50;;;0.55;;
41101;SDS011;26845;50.190;19.178;2022-07-12T11:03:56;1.72;;;0.47;;
41101;SDS011;26845;50.190;19.178;2022-07-12T11:06:36;1.22;;;0.68;;
41101;SDS011;26845;50.190;19.178;2022-07-12T11:09:09;0.93;;;0.60;;
41101;SDS011;26845;50.190;19.178;2022-07-12T11:11:41;2.42;;;0.60;;
41101;SDS011;26845;50.190;19.178;2022-07-12T11:14:12;0.82;;;0.50;;
41101;SDS011;26845;50.190;19.178;2022-07-12T11:16:47;3.17;;;0.62;;
41101;SDS011;26845;50.190;19.178;2022-07-12T11:19:20;1.20;;;0.55;;
41101;SDS011;26845;50.190;19.178;2022-07-12T11:21:51;1.92;;;0.60;;
41101;SDS011;26845;50.190;19.178;2022-07-12T11:24:23;2.00;;;0.75;;
41101;SDS011;26845;50.190;19.178;2022-07-12T11:26:53;0.82;;;0.50;;
41101;SDS011;26845;50.190;19.178;2022-07-12T11:29:19;3.75;;;0.80;;
41101;SDS011;26845;50.190;19.178;2022-07-12T11:31:54;0.55;;;0.50;;
41101;SDS011;26845;50.190;19.178;2022-07-12T11:34:33;1.22;;;0.50;;
41101;SDS011;26845;50.190;19.178;2022-07-12T11:37:00;2.58;;;0.60;;
41101;SDS011;26845;50.190;19.178;2022-07-12T11:39:34;2.50;;;0.85;;
41101;SDS011;26845;50.190;19.178;2022-07-12T11:42:03;2.47;;;0.60;;
41101;SDS011;26845;50.190;19.178;2022-07-12T11:47:17;1.90;;;0.75;;
41101;SDS011;26845;50.190;19.178;2022-07-12T11:49:47;3.70;;;1.70;;
41101;SDS011;26845;50.190;19.178;2022-07-12T11:52:19;2.12;;;0.72;;
41101;SDS011;26845;50.190;19.178;2022-07-12T11:54:51;2.55;;;0.55;;
41101;SDS011;26845;50.190;19.178;2022-07-12T11:57:35;2.72;;;0.62;;
41101;SDS011;26845;50.190;19.178;2022-07-12T12:00:14;2.35;;;0.75;;
41101;SDS011;26845;50.190;19.178;2022-07-12T12:02:55;1.57;;;0.60;;
41101;SDS011;26845;50.190;19.178;2022-07-12T12:05:25;0.55;;;0.42;;
41101;SDS011;26845;50.190;19.178;2022-07-12T12:07:57;1.70;;;0.70;;
41101;SDS011;26845;50.190;19.178;2022-07-12T12:10:30;2.25;;;0.78;;
41101;SDS011;26845;50.190;19.178;2022-07-12T12:13:00;3.52;;;0.60;;
41101;SDS011;26845;50.190;19.178;2022-07-12T12:15:32;1.50;;;0.68;;
41101;SDS011;26845;50.190;19.178;2022-07-12T12:18:02;3.90;;;0.60;;
41101;SDS011;26845;50.190;19.178;2022-07-12T12:20:36;2.33;;;0.53;;
41101;SDS011;26845;50.190;19.178;2022-07-12T12:23:16;0.90;;;0.47;;
41101;SDS011;26845;50.190;19.178;2022-07-12T12:28:18;2.22;;;0.62;;
41101;SDS011;26845;50.190;19.178;2022-07-12T12:30:59;2.20;;;0.60;;
41101;SDS011;26845;50.190;19.178;2022-07-12T12:33:37;3.10;;;0.40;;
41101;SDS011;26845;50.190;19.178;2022-07-12T12:36:37;0.68;;;0.40;;
41101;SDS011;26845;50.190;19.178;2022-07-12T12:38:58;2.02;;;0.60;;
41101;SDS011;26845;50.190;19.178;2022-07-12T12:41:28;0.72;;;0.47;;
41101;SDS011;26845;50.190;19.178;2022-07-12T12:44:10;1.07;;;0.50;;
41101;SDS011;26845;50.190;19.178;2022-07-12T12:46:46;0.47;;;0.30;;
41101;SDS011;26845;50.190;19.178;2022-07-12T12:49:45;1.82;;;0.40;;
41101;SDS011;26845;50.190;19.178;2022-07-12T12:52:14;2.77;;;0.30;;
41101;SDS011;26845;50.190;19.178;2022-07-12T12:54:42;1.72;;;0.30;;
41101;SDS011;26845;50.190;19.178;2022-07-12T12:57:10;2.60;;;0.37;;
41101;SDS011;26845;50.190;19.178;2022-07-12T12:59:37;2.58;;;0.35;;
41101;SDS011;26845;50.190;19.178;2022-07-12T13:02:05;1.07;;;0.35;;
41101;SDS011;26845;50.190;19.178;2022-07-12T13:04:33;1.27;;;0.40;;
41101;SDS011;26845;50.190;19.178;2022-07-12T13:07:04;0.60;;;0.30;;
41101;SDS011;26845;50.190;19.178;2022-07-12T13:09:38;3.08;;;0.57;;
41101;SDS011;26845;50.190;19.178;2022-07-12T13:12:08;0.95;;;0.30;;
41101;SDS011;26845;50.190;19.178;2022-07-12T13:14:35;0.75;;;0.30;;
41101;SDS011;26845;50.190;19.178;2022-07-12T13:17:01;0.93;;;0.50;;
41101;SDS011;26845;50.190;19.178;2022-07-12T13:19:28;0.68;;;0.50;;
41101;SDS011;26845;50.190;19.178;2022-07-12T13:21:54;1.30;;;0.50;;
41101;SDS011;26845;50.190;19.178;2022-07-12T13:24:20;1.52;;;0.50;;
41101;SDS011;26845;50.190;19.178;2022-07-12T13:26:46;2.52;;;0.35;;
41101;SDS011;26845;50.190;19.178;2022-07-12T13:29:15;2.17;;;0.60;;
41101;SDS011;26845;50.190;19.178;2022-07-12T13:31:41;2.15;;;1.12;;
41101;SDS011;26845;50.190;19.178;2022-07-12T13:34:07;2.60;;;1.35;;
41101;SDS011;26845;50.190;19.178;2022-07-12T13:36:36;1.57;;;1.00;;
41101;SDS011;26845;50.190;19.178;2022-07-12T13:39:03;0.80;;;0.45;;
41101;SDS011;26845;50.190;19.178;2022-07-12T13:41:47;1.15;;;0.78;;
41101;SDS011;26845;50.190;19.178;2022-07-12T13:44:14;4.30;;;1.30;;
41101;SDS011;26845;50.190;19.178;2022-07-12T13:46:44;1.15;;;0.60;;
41101;SDS011;26845;50.190;19.178;2022-07-12T13:49:15;0.82;;;0.55;;
41101;SDS011;26845;50.190;19.178;2022-07-12T13:51:46;0.50;;;0.50;;
41101;SDS011;26845;50.190;19.178;2022-07-12T13:54:14;0.85;;;0.57;;
41101;SDS011;26845;50.190;19.178;2022-07-12T13:56:45;1.35;;;0.50;;
41101;SDS011;26845;50.190;19.178;2022-07-12T13:59:18;0.62;;;0.42;;
41101;SDS011;26845;50.190;19.178;2022-07-12T14:01:47;0.42;;;0.30;;
41101;SDS011;26845;50.190;19.178;2022-07-12T14:04:19;1.60;;;0.50;;
41101;SDS011;26845;50.190;19.178;2022-07-12T14:06:50;0.75;;;0.30;;
41101;SDS011;26845;50.190;19.178;2022-07-12T14:09:21;1.10;;;0.57;;
41101;SDS011;26845;50.190;19.178;2022-07-12T14:11:51;1.30;;;0.30;;
41101;SDS011;26845;50.190;19.178;2022-07-12T14:14:20;0.50;;;0.40;;
41101;SDS011;26845;50.190;19.178;2022-07-12T14:17:08;1.57;;;0.30;;
41101;SDS011;26845;50.190;19.178;2022-07-12T14:19:39;1.35;;;0.60;;
41101;SDS011;26845;50.190;19.178;2022-07-12T14:22:12;0.30;;;0.28;;
41101;SDS011;26845;50.190;19.178;2022-07-12T14:24:45;0.88;;;0.33;;
41101;SDS011;26845;50.190;19.178;2022-07-12T14:27:19;1.10;;;0.30;;
41101;SDS011;26845;50.190;19.178;2022-07-12T14:29:49;1.37;;;0.50;;
41101;SDS011;26845;50.190;19.178;2022-07-12T14:32:18;0.72;;;0.50;;
41101;SDS011;26845;50.190;19.178;2022-07-12T14:34:44;3.42;;;1.27;;
41101;SDS011;26845;50.190;19.178;2022-07-12T14:37:10;1.52;;;0.85;;
41101;SDS011;26845;50.190;19.178;2022-07-12T14:39:38;2.37;;;1.02;;
41101;SDS011;26845;50.190;19.178;2022-07-12T14:42:04;0.50;;;0.20;;
41101;SDS011;26845;50.190;19.178;2022-07-12T14:44:31;0.40;;;0.20;;
41101;SDS011;26845;50.190;19.178;2022-07-12T14:46:57;1.07;;;0.40;;
41101;SDS011;26845;50.190;19.178;2022-07-12T14:49:23;1.17;;;0.50;;
41101;SDS011;26845;50.190;19.178;2022-07-12T14:51:49;0.40;;;0.30;;
41101;SDS011;26845;50.190;19.178;2022-07-12T14:54:16;3.15;;;0.62;;
41101;SDS011;26845;50.190;19.178;2022-07-12T14:56:44;0.75;;;0.50;;